sensor_id;sensor_type;location;lat;lon;timestamp;temperature;humidity
12700;DHT22;6414;49.570;6.060;2023-09-19T00:00:41;14.90;99.90
12700;DHT22;6414;49.570;6.060;2023-09-19T00:03:27;14.80;99.90
12700;DHT22;6414;49.570;6.060;2023-09-19T00:06:14;14.90;99.90
12700;DHT22;6414;49.570;6.060;2023-09-19T00:09:01;14.90;99.90
12700;DHT22;6414;49.570;6.060;2023-09-19T00:11:47;14.80;99.90
12700;DHT22;6414;49.570;6.060;2023-09-19T00:14:33;14.80;99.90
12700;DHT22;6414;49.570;6.060;2023-09-19T00:17:19;14.80;99.90
12700;DHT22;6414;49.570;6.060;2023-09-19T00:20:06;14.60;99.90
12700;DHT22;6414;49.570;6.060;2023-09-19T00:22:51;14.60;99.90
12700;DHT22;6414;49.570;6.060;2023-09-19T00:25:38;14.50;99.90
12700;DHT22;6414;49.570;6.060;2023-09-19T00:28:24;14.50;99.90
12700;DHT22;6414;49.570;6.060;2023-09-19T00:31:10;14.60;99.90
12700;DHT22;6414;49.570;6.060;2023-09-19T00:33:56;14.60;99.90
12700;DHT22;6414;49.570;6.060;2023-09-19T00:36:43;14.60;99.90
12700;DHT22;6414;49.570;6.060;2023-09-19T00:39:29;14.60;99.90
12700;DHT22;6414;49.570;6.060;2023-09-19T00:42:21;14.60;99.90
12700;DHT22;6414;49.570;6.060;2023-09-19T00:45:08;14.60;99.90
12700;DHT22;6414;49.570;6.060;2023-09-19T00:47:54;14.60;99.90
12700;DHT22;6414;49.570;6.060;2023-09-19T00:50:41;14.60;99.90
12700;DHT22;6414;49.570;6.060;2023-09-19T00:53:26;14.70;99.90
12700;DHT22;6414;49.570;6.060;2023-09-19T00:56:12;14.60;99.90
12700;DHT22;6414;49.570;6.060;2023-09-19T00:58:58;14.60;99.90
12700;DHT22;6414;49.570;6.060;2023-09-19T01:01:44;14.60;99.90
12700;DHT22;6414;49.570;6.060;2023-09-19T01:04:30;14.60;99.90
12700;DHT22;6414;49.570;6.060;2023-09-19T01:07:17;14.70;99.90
12700;DHT22;6414;49.570;6.060;2023-09-19T01:10:02;14.60;99.90
12700;DHT22;6414;49.570;6.060;2023-09-19T01:12:59;14.60;99.90
12700;DHT22;6414;49.570;6.060;2023-09-19T01:30:50;14.60;99.90
12700;DHT22;6414;49.570;6.060;2023-09-19T01:34:12;14.60;99.90
12700;DHT22;6414;49.570;6.060;2023-09-19T01:36:33;14.60;99.90
12700;DHT22;6414;49.570;6.060;2023-09-19T01:39:21;14.60;99.90
12700;DHT22;6414;49.570;6.060;2023-09-19T01:42:16;14.60;99.90
12700;DHT22;6414;49.570;6.060;2023-09-19T01:47:54;14.40;99.90
12700;DHT22;6414;49.570;6.060;2023-09-19T01:50:55;14.40;99.90
12700;DHT22;6414;49.570;6.060;2023-09-19T01:53:43;14.40;99.90
12700;DHT22;6414;49.570;6.060;2023-09-19T01:56:36;14.40;99.90
12700;DHT22;6414;49.570;6.060;2023-09-19T01:59:24;14.40;99.90
12700;DHT22;6414;49.570;6.060;2023-09-19T02:02:08;14.40;99.90
12700;DHT22;6414;49.570;6.060;2023-09-19T02:04:55;14.40;99.90
12700;DHT22;6414;49.570;6.060;2023-09-19T02:07:42;14.50;99.90
12700;DHT22;6414;49.570;6.060;2023-09-19T02:10:27;14.40;99.90
12700;DHT22;6414;49.570;6.060;2023-09-19T02:13:31;14.40;99.90
12700;DHT22;6414;49.570;6.060;2023-09-19T02:16:17;14.40;99.90
12700;DHT22;6414;49.570;6.060;2023-09-19T02:19:03;14.40;99.90
12700;DHT22;6414;49.570;6.060;2023-09-19T02:21:52;14.40;99.90
12700;DHT22;6414;49.570;6.060;2023-09-19T02:24:38;14.40;99.90
12700;DHT22;6414;49.570;6.060;2023-09-19T02:27:24;14.40;99.90
12700;DHT22;6414;49.570;6.060;2023-09-19T02:30:11;14.40;99.90
12700;DHT22;6414;49.570;6.060;2023-09-19T02:32:56;14.50;99.90
12700;DHT22;6414;49.570;6.060;2023-09-19T02:35:42;14.60;99.90
12700;DHT22;6414;49.570;6.060;2023-09-19T02:38:28;14.50;99.90
12700;DHT22;6414;49.570;6.060;2023-09-19T02:41:15;14.50;99.90
12700;DHT22;6414;49.570;6.060;2023-09-19T02:44:01;14.50;99.90
12700;DHT22;6414;49.570;6.060;2023-09-19T02:46:47;14.50;99.90
12700;DHT22;6414;49.570;6.060;2023-09-19T02:49:33;14.40;99.90
12700;DHT22;6414;49.570;6.060;2023-09-19T02:52:19;14.40;99.90
12700;DHT22;6414;49.570;6.060;2023-09-19T02:55:05;14.40;99.90
12700;DHT22;6414;49.570;6.060;2023-09-19T02:57:52;14.40;99.90
12700;DHT22;6414;49.570;6.060;2023-09-19T03:00:37;14.40;99.90
12700;DHT22;6414;49.570;6.060;2023-09-19T03:03:24;14.30;99.90
12700;DHT22;6414;49.570;6.060;2023-09-19T03:06:09;14.30;99.90
12700;DHT22;6414;49.570;6.060;2023-09-19T03:08:56;14.30;99.90
12700;DHT22;6414;49.570;6.060;2023-09-19T03:11:42;14.30;99.90
12700;DHT22;6414;49.570;6.060;2023-09-19T03:14:28;14.20;99.90
12700;DHT22;6414;49.570;6.060;2023-09-19T03:17:14;14.10;99.90
12700;DHT22;6414;49.570;6.060;2023-09-19T03:20:00;14.10;99.90
12700;DHT22;6414;49.570;6.060;2023-09-19T03:22:46;14.10;99.90
12700;DHT22;6414;49.570;6.060;2023-09-19T03:25:34;14.00;99.90
12700;DHT22;6414;49.570;6.060;2023-09-19T03:28:18;14.00;99.90
12700;DHT22;6414;49.570;6.060;2023-09-19T03:31:05;14.00;99.90
12700;DHT22;6414;49.570;6.060;2023-09-19T03:33:50;14.10;99.90
12700;DHT22;6414;49.570;6.060;2023-09-19T03:36:36;14.10;99.90
12700;DHT22;6414;49.570;6.060;2023-09-19T03:39:22;14.20;99.90
12700;DHT22;6414;49.570;6.060;2023-09-19T03:42:08;14.20;99.90
12700;DHT22;6414;49.570;6.060;2023-09-19T03:44:54;14.10;99.90
12700;DHT22;6414;49.570;6.060;2023-09-19T03:47:40;14.00;99.90
12700;DHT22;6414;49.570;6.060;2023-09-19T03:50:26;14.00;99.90
12700;DHT22;6414;49.570;6.060;2023-09-19T03:53:12;13.90;99.90
12700;DHT22;6414;49.570;6.060;2023-09-19T03:55:58;13.90;99.90
12700;DHT22;6414;49.570;6.060;2023-09-19T03:58:44;13.90;99.90
12700;DHT22;6414;49.570;6.060;2023-09-19T04:01:30;13.90;99.90
12700;DHT22;6414;49.570;6.060;2023-09-19T04:04:17;13.90;99.90
12700;DHT22;6414;49.570;6.060;2023-09-19T04:07:03;13.80;99.90
12700;DHT22;6414;49.570;6.060;2023-09-19T04:09:49;13.90;99.90
12700;DHT22;6414;49.570;6.060;2023-09-19T04:12:36;13.80;99.90
12700;DHT22;6414;49.570;6.060;2023-09-19T04:15:23;13.80;99.90
12700;DHT22;6414;49.570;6.060;2023-09-19T04:18:09;13.80;99.90
12700;DHT22;6414;49.570;6.060;2023-09-19T04:20:55;13.80;99.90
12700;DHT22;6414;49.570;6.060;2023-09-19T04:23:42;13.70;99.90
12700;DHT22;6414;49.570;6.060;2023-09-19T04:26:29;13.70;99.90
12700;DHT22;6414;49.570;6.060;2023-09-19T04:29:15;13.70;99.90
12700;DHT22;6414;49.570;6.060;2023-09-19T04:32:01;13.60;99.90
12700;DHT22;6414;49.570;6.060;2023-09-19T04:34:48;13.50;99.90
12700;DHT22;6414;49.570;6.060;2023-09-19T04:37:40;13.60;99.90
12700;DHT22;6414;49.570;6.060;2023-09-19T04:40:26;13.60;99.90
12700;DHT22;6414;49.570;6.060;2023-09-19T04:43:15;13.50;99.90
12700;DHT22;6414;49.570;6.060;2023-09-19T04:46:02;13.50;99.90
12700;DHT22;6414;49.570;6.060;2023-09-19T04:48:48;13.50;99.90
12700;DHT22;6414;49.570;6.060;2023-09-19T04:51:34;13.50;99.90
12700;DHT22;6414;49.570;6.060;2023-09-19T04:54:21;13.50;99.90
12700;DHT22;6414;49.570;6.060;2023-09-19T04:57:07;13.50;99.90
12700;DHT22;6414;49.570;6.060;2023-09-19T04:59:53;13.40;99.90
12700;DHT22;6414;49.570;6.060;2023-09-19T05:02:41;13.40;99.90
12700;DHT22;6414;49.570;6.060;2023-09-19T05:05:27;13.40;99.90
12700;DHT22;6414;49.570;6.060;2023-09-19T05:08:13;13.40;99.90
12700;DHT22;6414;49.570;6.060;2023-09-19T05:11:01;13.40;99.90
12700;DHT22;6414;49.570;6.060;2023-09-19T05:13:44;13.50;99.90
12700;DHT22;6414;49.570;6.060;2023-09-19T05:16:31;13.50;99.90
12700;DHT22;6414;49.570;6.060;2023-09-19T05:19:20;13.50;99.90
12700;DHT22;6414;49.570;6.060;2023-09-19T05:22:06;13.50;99.90
12700;DHT22;6414;49.570;6.060;2023-09-19T05:24:52;13.50;99.90
12700;DHT22;6414;49.570;6.060;2023-09-19T05:27:38;13.40;99.90
12700;DHT22;6414;49.570;6.060;2023-09-19T05:30:25;13.30;99.90
12700;DHT22;6414;49.570;6.060;2023-09-19T05:33:11;13.40;99.90
12700;DHT22;6414;49.570;6.060;2023-09-19T05:35:57;13.30;99.90
12700;DHT22;6414;49.570;6.060;2023-09-19T05:38:43;13.30;99.90
12700;DHT22;6414;49.570;6.060;2023-09-19T05:41:29;13.30;99.90
12700;DHT22;6414;49.570;6.060;2023-09-19T05:44:16;13.30;99.90
12700;DHT22;6414;49.570;6.060;2023-09-19T05:47:03;13.30;99.90
12700;DHT22;6414;49.570;6.060;2023-09-19T05:49:49;13.30;99.90
12700;DHT22;6414;49.570;6.060;2023-09-19T05:52:35;13.30;99.90
12700;DHT22;6414;49.570;6.060;2023-09-19T05:55:22;13.20;99.90
12700;DHT22;6414;49.570;6.060;2023-09-19T05:58:08;13.20;99.90
12700;DHT22;6414;49.570;6.060;2023-09-19T06:00:55;13.20;99.90
12700;DHT22;6414;49.570;6.060;2023-09-19T06:03:41;13.20;99.90
12700;DHT22;6414;49.570;6.060;2023-09-19T06:06:27;13.20;99.90
12700;DHT22;6414;49.570;6.060;2023-09-19T06:09:14;13.30;99.90
12700;DHT22;6414;49.570;6.060;2023-09-19T06:12:00;13.20;99.90
12700;DHT22;6414;49.570;6.060;2023-09-19T06:14:46;13.20;99.90
12700;DHT22;6414;49.570;6.060;2023-09-19T06:17:32;13.30;99.90
12700;DHT22;6414;49.570;6.060;2023-09-19T06:20:18;13.30;99.90
12700;DHT22;6414;49.570;6.060;2023-09-19T06:23:05;13.30;99.90
12700;DHT22;6414;49.570;6.060;2023-09-19T06:25:52;13.40;99.90
12700;DHT22;6414;49.570;6.060;2023-09-19T06:28:38;13.30;99.90
12700;DHT22;6414;49.570;6.060;2023-09-19T06:31:24;13.30;99.90
12700;DHT22;6414;49.570;6.060;2023-09-19T06:34:10;13.30;99.90
12700;DHT22;6414;49.570;6.060;2023-09-19T06:36:57;13.40;99.90
12700;DHT22;6414;49.570;6.060;2023-09-19T06:39:43;13.40;99.90
12700;DHT22;6414;49.570;6.060;2023-09-19T06:42:29;13.30;99.90
12700;DHT22;6414;49.570;6.060;2023-09-19T06:45:16;13.40;99.90
12700;DHT22;6414;49.570;6.060;2023-09-19T06:48:05;13.40;99.90
12700;DHT22;6414;49.570;6.060;2023-09-19T06:50:52;13.40;99.90
12700;DHT22;6414;49.570;6.060;2023-09-19T06:53:37;13.50;99.90
12700;DHT22;6414;49.570;6.060;2023-09-19T06:56:24;13.40;99.90
12700;DHT22;6414;49.570;6.060;2023-09-19T06:59:10;13.50;99.90
12700;DHT22;6414;49.570;6.060;2023-09-19T07:01:57;13.50;99.90
12700;DHT22;6414;49.570;6.060;2023-09-19T07:04:42;13.50;99.90
12700;DHT22;6414;49.570;6.060;2023-09-19T07:07:28;13.50;99.90
12700;DHT22;6414;49.570;6.060;2023-09-19T07:10:15;13.50;99.90
12700;DHT22;6414;49.570;6.060;2023-09-19T07:13:05;13.50;99.90
12700;DHT22;6414;49.570;6.060;2023-09-19T07:15:47;13.60;99.90
12700;DHT22;6414;49.570;6.060;2023-09-19T07:18:33;13.70;99.90
12700;DHT22;6414;49.570;6.060;2023-09-19T07:21:19;13.60;99.90
12700;DHT22;6414;49.570;6.060;2023-09-19T07:24:05;13.60;99.90
12700;DHT22;6414;49.570;6.060;2023-09-19T07:26:52;13.70;99.90
12700;DHT22;6414;49.570;6.060;2023-09-19T07:29:38;13.90;99.90
12700;DHT22;6414;49.570;6.060;2023-09-19T07:32:25;14.20;99.90
12700;DHT22;6414;49.570;6.060;2023-09-19T07:35:10;14.20;99.90
12700;DHT22;6414;49.570;6.060;2023-09-19T07:37:56;14.40;99.90
12700;DHT22;6414;49.570;6.060;2023-09-19T07:40:42;14.40;99.90
12700;DHT22;6414;49.570;6.060;2023-09-19T07:43:29;14.50;99.90
12700;DHT22;6414;49.570;6.060;2023-09-19T07:46:14;14.50;99.90
12700;DHT22;6414;49.570;6.060;2023-09-19T07:49:01;14.60;99.90
12700;DHT22;6414;49.570;6.060;2023-09-19T07:51:47;14.60;99.90
12700;DHT22;6414;49.570;6.060;2023-09-19T07:54:33;14.60;99.90
12700;DHT22;6414;49.570;6.060;2023-09-19T07:57:19;14.70;99.90
12700;DHT22;6414;49.570;6.060;2023-09-19T08:00:06;14.70;99.90
12700;DHT22;6414;49.570;6.060;2023-09-19T08:02:53;14.60;99.90
12700;DHT22;6414;49.570;6.060;2023-09-19T08:05:39;14.50;99.90
12700;DHT22;6414;49.570;6.060;2023-09-19T08:08:27;14.70;99.90
12700;DHT22;6414;49.570;6.060;2023-09-19T08:11:13;14.70;99.90
12700;DHT22;6414;49.570;6.060;2023-09-19T08:14:00;14.80;99.90
12700;DHT22;6414;49.570;6.060;2023-09-19T08:16:46;14.80;99.90
12700;DHT22;6414;49.570;6.060;2023-09-19T08:19:32;14.80;99.90
12700;DHT22;6414;49.570;6.060;2023-09-19T08:22:19;14.80;99.90
12700;DHT22;6414;49.570;6.060;2023-09-19T08:25:04;14.90;99.90
12700;DHT22;6414;49.570;6.060;2023-09-19T08:27:50;15.00;99.90
12700;DHT22;6414;49.570;6.060;2023-09-19T08:30:36;15.00;99.90
12700;DHT22;6414;49.570;6.060;2023-09-19T08:33:22;15.20;99.90
12700;DHT22;6414;49.570;6.060;2023-09-19T08:36:08;15.20;99.90
12700;DHT22;6414;49.570;6.060;2023-09-19T08:38:55;15.40;99.90
12700;DHT22;6414;49.570;6.060;2023-09-19T08:41:42;15.40;99.90
12700;DHT22;6414;49.570;6.060;2023-09-19T08:44:29;15.40;99.90
12700;DHT22;6414;49.570;6.060;2023-09-19T08:47:15;15.40;99.90
12700;DHT22;6414;49.570;6.060;2023-09-19T08:50:09;15.70;99.90
12700;DHT22;6414;49.570;6.060;2023-09-19T08:52:50;15.70;99.90
12700;DHT22;6414;49.570;6.060;2023-09-19T08:55:36;15.90;99.90
12700;DHT22;6414;49.570;6.060;2023-09-19T08:58:25;15.90;99.90
12700;DHT22;6414;49.570;6.060;2023-09-19T09:01:09;16.00;99.90
12700;DHT22;6414;49.570;6.060;2023-09-19T09:03:56;16.30;99.90
12700;DHT22;6414;49.570;6.060;2023-09-19T09:06:42;16.40;99.90
12700;DHT22;6414;49.570;6.060;2023-09-19T09:09:28;16.40;99.90
12700;DHT22;6414;49.570;6.060;2023-09-19T09:12:14;16.60;99.90
12700;DHT22;6414;49.570;6.060;2023-09-19T09:15:01;16.50;99.90
12700;DHT22;6414;49.570;6.060;2023-09-19T09:17:51;16.40;99.90
12700;DHT22;6414;49.570;6.060;2023-09-19T09:20:36;16.40;99.90
12700;DHT22;6414;49.570;6.060;2023-09-19T09:23:23;16.90;99.90
12700;DHT22;6414;49.570;6.060;2023-09-19T09:26:09;17.10;99.90
12700;DHT22;6414;49.570;6.060;2023-09-19T09:28:55;17.00;99.90
12700;DHT22;6414;49.570;6.060;2023-09-19T09:31:41;17.30;99.90
12700;DHT22;6414;49.570;6.060;2023-09-19T09:34:33;17.10;99.90
12700;DHT22;6414;49.570;6.060;2023-09-19T09:37:19;17.10;99.90
12700;DHT22;6414;49.570;6.060;2023-09-19T09:40:05;17.50;99.90
12700;DHT22;6414;49.570;6.060;2023-09-19T09:42:59;18.00;99.90
12700;DHT22;6414;49.570;6.060;2023-09-19T09:45:46;17.90;99.90
12700;DHT22;6414;49.570;6.060;2023-09-19T09:48:31;18.00;99.90
12700;DHT22;6414;49.570;6.060;2023-09-19T09:51:29;17.90;99.90
12700;DHT22;6414;49.570;6.060;2023-09-19T09:54:14;18.10;99.90
12700;DHT22;6414;49.570;6.060;2023-09-19T09:57:04;18.00;99.90
12700;DHT22;6414;49.570;6.060;2023-09-19T10:00:00;17.80;99.90
12700;DHT22;6414;49.570;6.060;2023-09-19T10:02:46;17.80;99.90
12700;DHT22;6414;49.570;6.060;2023-09-19T10:05:32;17.80;99.90
12700;DHT22;6414;49.570;6.060;2023-09-19T10:08:18;17.40;99.90
12700;DHT22;6414;49.570;6.060;2023-09-19T10:11:15;17.60;99.90
12700;DHT22;6414;49.570;6.060;2023-09-19T10:13:50;17.60;99.90
12700;DHT22;6414;49.570;6.060;2023-09-19T10:16:36;17.60;99.90
12700;DHT22;6414;49.570;6.060;2023-09-19T10:19:42;17.80;99.90
12700;DHT22;6414;49.570;6.060;2023-09-19T10:22:26;17.90;99.90
12700;DHT22;6414;49.570;6.060;2023-09-19T10:25:12;17.70;99.90
12700;DHT22;6414;49.570;6.060;2023-09-19T10:28:00;17.90;99.90
12700;DHT22;6414;49.570;6.060;2023-09-19T10:30:45;18.00;99.90
12700;DHT22;6414;49.570;6.060;2023-09-19T10:33:33;18.00;99.90
12700;DHT22;6414;49.570;6.060;2023-09-19T10:36:17;17.70;99.90
12700;DHT22;6414;49.570;6.060;2023-09-19T10:39:03;17.70;99.90
12700;DHT22;6414;49.570;6.060;2023-09-19T10:41:53;17.80;99.90
12700;DHT22;6414;49.570;6.060;2023-09-19T10:44:45;17.70;99.90
12700;DHT22;6414;49.570;6.060;2023-09-19T10:47:31;17.50;99.90
12700;DHT22;6414;49.570;6.060;2023-09-19T10:50:20;17.40;99.90
12700;DHT22;6414;49.570;6.060;2023-09-19T10:53:06;17.40;99.90
12700;DHT22;6414;49.570;6.060;2023-09-19T10:55:53;17.50;99.90
12700;DHT22;6414;49.570;6.060;2023-09-19T10:58:39;17.90;99.90
12700;DHT22;6414;49.570;6.060;2023-09-19T11:01:38;17.80;99.90
12700;DHT22;6414;49.570;6.060;2023-09-19T11:04:23;17.90;99.90
12700;DHT22;6414;49.570;6.060;2023-09-19T11:07:14;17.70;99.90
12700;DHT22;6414;49.570;6.060;2023-09-19T11:10:01;17.70;99.90
12700;DHT22;6414;49.570;6.060;2023-09-19T11:27:14;17.80;99.90
12700;DHT22;6414;49.570;6.060;2023-09-19T11:30:25;18.00;99.90
12700;DHT22;6414;49.570;6.060;2023-09-19T11:33:21;18.10;99.90
12700;DHT22;6414;49.570;6.060;2023-09-19T11:36:10;18.10;99.90
12700;DHT22;6414;49.570;6.060;2023-09-19T11:39:00;17.80;99.90
12700;DHT22;6414;49.570;6.060;2023-09-19T11:41:42;17.50;99.90
12700;DHT22;6414;49.570;6.060;2023-09-19T11:44:31;17.50;99.90
12700;DHT22;6414;49.570;6.060;2023-09-19T11:47:17;17.80;99.90
12700;DHT22;6414;49.570;6.060;2023-09-19T11:50:04;18.10;99.90
12700;DHT22;6414;49.570;6.060;2023-09-19T11:52:51;18.20;99.90
12700;DHT22;6414;49.570;6.060;2023-09-19T11:55:36;18.20;99.90
12700;DHT22;6414;49.570;6.060;2023-09-19T11:58:22;18.20;99.90
12700;DHT22;6414;49.570;6.060;2023-09-19T12:01:08;18.10;99.90
12700;DHT22;6414;49.570;6.060;2023-09-19T12:03:54;18.00;99.90
12700;DHT22;6414;49.570;6.060;2023-09-19T12:06:40;17.80;99.90
12700;DHT22;6414;49.570;6.060;2023-09-19T12:09:26;17.70;99.90
12700;DHT22;6414;49.570;6.060;2023-09-19T12:12:34;17.80;99.90
12700;DHT22;6414;49.570;6.060;2023-09-19T12:14:58;17.90;99.90
12700;DHT22;6414;49.570;6.060;2023-09-19T12:17:44;18.10;99.90
12700;DHT22;6414;49.570;6.060;2023-09-19T12:20:43;18.20;99.90
12700;DHT22;6414;49.570;6.060;2023-09-19T12:23:28;18.40;99.90
12700;DHT22;6414;49.570;6.060;2023-09-19T12:26:14;18.50;99.90
12700;DHT22;6414;49.570;6.060;2023-09-19T12:29:00;18.50;99.90
12700;DHT22;6414;49.570;6.060;2023-09-19T12:34:38;18.20;99.90
12700;DHT22;6414;49.570;6.060;2023-09-19T12:37:30;18.40;99.90
12700;DHT22;6414;49.570;6.060;2023-09-19T12:40:16;18.60;99.90
12700;DHT22;6414;49.570;6.060;2023-09-19T12:43:05;18.60;99.90
12700;DHT22;6414;49.570;6.060;2023-09-19T12:45:53;18.60;99.90
12700;DHT22;6414;49.570;6.060;2023-09-19T12:48:39;18.50;99.90
12700;DHT22;6414;49.570;6.060;2023-09-19T12:51:25;18.60;99.90
12700;DHT22;6414;49.570;6.060;2023-09-19T12:54:11;18.60;99.90
12700;DHT22;6414;49.570;6.060;2023-09-19T12:56:57;18.90;99.90
12700;DHT22;6414;49.570;6.060;2023-09-19T12:59:43;19.00;99.90
12700;DHT22;6414;49.570;6.060;2023-09-19T13:02:30;19.00;99.90
12700;DHT22;6414;49.570;6.060;2023-09-19T13:05:16;18.80;99.90
12700;DHT22;6414;49.570;6.060;2023-09-19T13:08:05;18.60;99.90
12700;DHT22;6414;49.570;6.060;2023-09-19T13:11:05;18.60;99.90
12700;DHT22;6414;49.570;6.060;2023-09-19T13:14:15;18.60;99.90
12700;DHT22;6414;49.570;6.060;2023-09-19T13:17:06;18.80;99.90
12700;DHT22;6414;49.570;6.060;2023-09-19T13:19:52;18.60;99.90
12700;DHT22;6414;49.570;6.060;2023-09-19T13:25:28;18.70;99.90
12700;DHT22;6414;49.570;6.060;2023-09-19T13:28:15;18.60;99.90
12700;DHT22;6414;49.570;6.060;2023-09-19T13:31:01;18.60;99.90
12700;DHT22;6414;49.570;6.060;2023-09-19T13:33:48;18.70;99.90
12700;DHT22;6414;49.570;6.060;2023-09-19T13:36:34;18.70;99.90
12700;DHT22;6414;49.570;6.060;2023-09-19T13:39:20;18.70;99.90
12700;DHT22;6414;49.570;6.060;2023-09-19T13:42:06;18.70;99.90
12700;DHT22;6414;49.570;6.060;2023-09-19T13:44:54;18.90;99.90
12700;DHT22;6414;49.570;6.060;2023-09-19T13:47:40;18.90;99.90
12700;DHT22;6414;49.570;6.060;2023-09-19T13:50:26;19.00;99.90
12700;DHT22;6414;49.570;6.060;2023-09-19T13:53:12;18.90;99.90
12700;DHT22;6414;49.570;6.060;2023-09-19T13:55:58;18.90;99.90
12700;DHT22;6414;49.570;6.060;2023-09-19T13:58:44;18.90;99.90
12700;DHT22;6414;49.570;6.060;2023-09-19T14:01:31;18.80;99.90
12700;DHT22;6414;49.570;6.060;2023-09-19T14:04:17;18.80;99.90
12700;DHT22;6414;49.570;6.060;2023-09-19T14:07:04;18.60;99.90
12700;DHT22;6414;49.570;6.060;2023-09-19T14:09:52;18.60;99.90
12700;DHT22;6414;49.570;6.060;2023-09-19T14:12:38;18.60;99.90
12700;DHT22;6414;49.570;6.060;2023-09-19T14:15:23;18.60;99.90
12700;DHT22;6414;49.570;6.060;2023-09-19T14:18:09;18.70;99.90
12700;DHT22;6414;49.570;6.060;2023-09-19T14:20:55;18.90;99.90
12700;DHT22;6414;49.570;6.060;2023-09-19T14:23:41;18.90;99.90
12700;DHT22;6414;49.570;6.060;2023-09-19T14:26:27;18.90;99.90
12700;DHT22;6414;49.570;6.060;2023-09-19T14:29:13;18.80;99.90
12700;DHT22;6414;49.570;6.060;2023-09-19T14:31:59;18.70;99.90
12700;DHT22;6414;49.570;6.060;2023-09-19T14:34:45;18.70;99.90
12700;DHT22;6414;49.570;6.060;2023-09-19T14:37:31;18.70;99.90
12700;DHT22;6414;49.570;6.060;2023-09-19T14:40:17;18.60;99.90
12700;DHT22;6414;49.570;6.060;2023-09-19T14:43:03;18.70;99.90
12700;DHT22;6414;49.570;6.060;2023-09-19T14:45:49;18.70;99.90
12700;DHT22;6414;49.570;6.060;2023-09-19T14:48:36;18.60;99.90
12700;DHT22;6414;49.570;6.060;2023-09-19T14:51:21;18.50;99.90
12700;DHT22;6414;49.570;6.060;2023-09-19T14:54:08;18.70;99.90
12700;DHT22;6414;49.570;6.060;2023-09-19T14:56:55;18.70;99.90
12700;DHT22;6414;49.570;6.060;2023-09-19T14:59:41;18.80;99.90
12700;DHT22;6414;49.570;6.060;2023-09-19T15:02:27;18.80;99.90
12700;DHT22;6414;49.570;6.060;2023-09-19T15:05:14;18.60;99.90
12700;DHT22;6414;49.570;6.060;2023-09-19T15:07:59;18.60;99.90
12700;DHT22;6414;49.570;6.060;2023-09-19T15:10:50;18.60;99.90
12700;DHT22;6414;49.570;6.060;2023-09-19T15:13:36;18.60;99.90
12700;DHT22;6414;49.570;6.060;2023-09-19T15:16:21;18.60;99.90
12700;DHT22;6414;49.570;6.060;2023-09-19T15:19:08;18.60;99.90
12700;DHT22;6414;49.570;6.060;2023-09-19T15:21:55;18.60;99.90
12700;DHT22;6414;49.570;6.060;2023-09-19T15:24:41;18.60;99.90
12700;DHT22;6414;49.570;6.060;2023-09-19T16:49:02;17.80;99.90
12700;DHT22;6414;49.570;6.060;2023-09-19T16:51:48;17.80;99.90
12700;DHT22;6414;49.570;6.060;2023-09-19T16:54:35;17.80;99.90
12700;DHT22;6414;49.570;6.060;2023-09-19T16:57:21;17.80;99.90
12700;DHT22;6414;49.570;6.060;2023-09-19T17:00:08;17.70;99.90
12700;DHT22;6414;49.570;6.060;2023-09-19T17:02:54;17.70;99.90
12700;DHT22;6414;49.570;6.060;2023-09-19T17:05:40;17.70;99.90
12700;DHT22;6414;49.570;6.060;2023-09-19T17:08:26;17.60;99.90
12700;DHT22;6414;49.570;6.060;2023-09-19T17:11:12;17.60;99.90
12700;DHT22;6414;49.570;6.060;2023-09-19T17:13:58;17.60;99.90
12700;DHT22;6414;49.570;6.060;2023-09-19T17:16:44;17.50;99.90
12700;DHT22;6414;49.570;6.060;2023-09-19T17:19:30;17.50;99.90
12700;DHT22;6414;49.570;6.060;2023-09-19T17:22:16;17.50;99.90
12700;DHT22;6414;49.570;6.060;2023-09-19T17:25:03;17.50;99.90
12700;DHT22;6414;49.570;6.060;2023-09-19T17:27:48;17.40;99.90
12700;DHT22;6414;49.570;6.060;2023-09-19T17:30:35;17.40;99.90
12700;DHT22;6414;49.570;6.060;2023-09-19T17:33:20;17.30;99.90
12700;DHT22;6414;49.570;6.060;2023-09-19T17:36:11;17.30;99.90
12700;DHT22;6414;49.570;6.060;2023-09-19T17:38:55;17.30;99.90
12700;DHT22;6414;49.570;6.060;2023-09-19T17:41:41;17.20;99.90
12700;DHT22;6414;49.570;6.060;2023-09-19T17:44:28;17.10;99.90
12700;DHT22;6414;49.570;6.060;2023-09-19T17:47:14;17.10;99.90
12700;DHT22;6414;49.570;6.060;2023-09-19T17:50:00;17.10;99.90
12700;DHT22;6414;49.570;6.060;2023-09-19T17:52:46;17.20;99.90
12700;DHT22;6414;49.570;6.060;2023-09-19T17:55:36;17.10;99.90
12700;DHT22;6414;49.570;6.060;2023-09-19T17:58:18;17.10;99.90
12700;DHT22;6414;49.570;6.060;2023-09-19T18:01:17;17.10;99.90
12700;DHT22;6414;49.570;6.060;2023-09-19T18:04:02;17.10;99.90
12700;DHT22;6414;49.570;6.060;2023-09-19T18:06:48;17.00;99.90
12700;DHT22;6414;49.570;6.060;2023-09-19T18:09:35;17.00;99.90
12700;DHT22;6414;49.570;6.060;2023-09-19T18:12:21;17.00;99.90
12700;DHT22;6414;49.570;6.060;2023-09-19T18:15:08;17.00;99.90
12700;DHT22;6414;49.570;6.060;2023-09-19T18:17:54;17.00;99.90
12700;DHT22;6414;49.570;6.060;2023-09-19T18:20:40;17.00;99.90
12700;DHT22;6414;49.570;6.060;2023-09-19T18:23:26;17.00;99.90
12700;DHT22;6414;49.570;6.060;2023-09-19T18:26:12;16.90;99.90
12700;DHT22;6414;49.570;6.060;2023-09-19T18:28:58;16.90;99.90
12700;DHT22;6414;49.570;6.060;2023-09-19T18:31:44;16.80;99.90
12700;DHT22;6414;49.570;6.060;2023-09-19T18:34:31;16.70;99.90
12700;DHT22;6414;49.570;6.060;2023-09-19T18:37:17;16.70;99.90
12700;DHT22;6414;49.570;6.060;2023-09-19T18:40:03;16.70;99.90
12700;DHT22;6414;49.570;6.060;2023-09-19T18:42:49;16.70;99.90
12700;DHT22;6414;49.570;6.060;2023-09-19T18:45:35;16.60;99.90
12700;DHT22;6414;49.570;6.060;2023-09-19T18:48:21;16.60;99.90
12700;DHT22;6414;49.570;6.060;2023-09-19T18:51:07;16.60;99.90
12700;DHT22;6414;49.570;6.060;2023-09-19T18:53:53;16.60;99.90
12700;DHT22;6414;49.570;6.060;2023-09-19T18:56:43;16.60;99.90
12700;DHT22;6414;49.570;6.060;2023-09-19T18:59:25;16.50;99.90
12700;DHT22;6414;49.570;6.060;2023-09-19T19:02:11;16.50;99.90
12700;DHT22;6414;49.570;6.060;2023-09-19T19:04:57;16.50;99.90
12700;DHT22;6414;49.570;6.060;2023-09-19T19:07:44;16.50;99.90
12700;DHT22;6414;49.570;6.060;2023-09-19T19:10:31;16.30;99.90
12700;DHT22;6414;49.570;6.060;2023-09-19T19:13:17;16.30;99.90
12700;DHT22;6414;49.570;6.060;2023-09-19T19:16:03;16.30;99.90
12700;DHT22;6414;49.570;6.060;2023-09-19T19:18:49;16.30;99.90
12700;DHT22;6414;49.570;6.060;2023-09-19T19:21:38;16.30;99.90
12700;DHT22;6414;49.570;6.060;2023-09-19T19:24:25;16.20;99.90
12700;DHT22;6414;49.570;6.060;2023-09-19T19:27:11;16.10;99.90
12700;DHT22;6414;49.570;6.060;2023-09-19T19:29:58;16.10;99.90
12700;DHT22;6414;49.570;6.060;2023-09-19T19:32:44;16.10;99.90
12700;DHT22;6414;49.570;6.060;2023-09-19T19:35:30;16.10;99.90
12700;DHT22;6414;49.570;6.060;2023-09-19T19:38:16;16.10;99.90
12700;DHT22;6414;49.570;6.060;2023-09-19T19:41:02;16.10;99.90
12700;DHT22;6414;49.570;6.060;2023-09-19T19:43:48;16.10;99.90
12700;DHT22;6414;49.570;6.060;2023-09-19T19:46:34;16.10;99.90
12700;DHT22;6414;49.570;6.060;2023-09-19T19:49:20;16.10;99.90